sensor_id;sensor_type;location;lat;lon;timestamp;P1;durP1;ratioP1;P2;durP2;ratioP2
33413;SDS011;60055;41.884;12.534;2022-08-18T00:04:38;39.70;;;7.20;;
33413;SDS011;60055;41.884;12.534;2022-08-18T00:07:04;39.95;;;7.53;;
33413;SDS011;60055;41.884;12.534;2022-08-18T00:09:32;35.70;;;6.65;;
33413;SDS011;60055;41.884;12.534;2022-08-18T00:11:59;40.75;;;7.05;;
33413;SDS011;60055;41.884;12.534;2022-08-18T00:14:28;39.20;;;6.97;;
33413;SDS011;60055;41.884;12.534;2022-08-18T00:16:54;33.67;;;7.13;;
33413;SDS011;60055;41.884;12.534;2022-08-18T00:19:20;38.92;;;7.07;;
33413;SDS011;60055;41.884;12.534;2022-08-18T00:21:47;46.10;;;7.10;;
33413;SDS011;60055;41.884;12.534;2022-08-18T00:24:13;33.58;;;7.25;;
33413;SDS011;60055;41.884;12.534;2022-08-18T00:26:38;34.53;;;7.35;;
33413;SDS011;60055;41.884;12.534;2022-08-18T00:29:04;36.97;;;7.32;;
33413;SDS011;60055;41.884;12.534;2022-08-18T00:31:30;32.35;;;7.10;;
33413;SDS011;60055;41.884;12.534;2022-08-18T00:33:56;32.60;;;7.68;;
33413;SDS011;60055;41.884;12.534;2022-08-18T00:36:22;42.22;;;6.78;;
33413;SDS011;60055;41.884;12.534;2022-08-18T00:38:47;33.10;;;7.43;;
33413;SDS011;60055;41.884;12.534;2022-08-18T00:41:13;33.72;;;7.10;;
33413;SDS011;60055;41.884;12.534;2022-08-18T00:43:44;37.35;;;7.03;;
33413;SDS011;60055;41.884;12.534;2022-08-18T00:46:17;43.88;;;7.25;;
33413;SDS011;60055;41.884;12.534;2022-08-18T00:48:45;31.17;;;6.28;;
33413;SDS011;60055;41.884;12.534;2022-08-18T00:51:26;40.35;;;7.50;;
33413;SDS011;60055;41.884;12.534;2022-08-18T00:53:58;32.03;;;6.68;;
33413;SDS011;60055;41.884;12.534;2022-08-18T00:56:32;40.88;;;7.82;;
33413;SDS011;60055;41.884;12.534;2022-08-18T00:59:10;39.40;;;7.15;;
33413;SDS011;60055;41.884;12.534;2022-08-18T01:01:47;41.95;;;7.68;;
33413;SDS011;60055;41.884;12.534;2022-08-18T01:04:19;28.48;;;6.75;;
33413;SDS011;60055;41.884;12.534;2022-08-18T01:07:07;36.75;;;7.20;;
33413;SDS011;60055;41.884;12.534;2022-08-18T01:09:39;38.08;;;7.03;;
33413;SDS011;60055;41.884;12.534;2022-08-18T01:12:05;39.65;;;7.25;;
33413;SDS011;60055;41.884;12.534;2022-08-18T01:14:32;45.25;;;7.43;;
33413;SDS011;60055;41.884;12.534;2022-08-18T01:16:58;33.05;;;6.68;;
33413;SDS011;60055;41.884;12.534;2022-08-18T01:19:42;33.00;;;6.82;;
33413;SDS011;60055;41.884;12.534;2022-08-18T01:22:37;43.80;;;7.47;;
33413;SDS011;60055;41.884;12.534;2022-08-18T01:25:15;35.10;;;6.90;;
33413;SDS011;60055;41.884;12.534;2022-08-18T01:28:01;40.90;;;7.10;;
33413;SDS011;60055;41.884;12.534;2022-08-18T01:30:29;39.30;;;7.82;;
33413;SDS011;60055;41.884;12.534;2022-08-18T01:32:56;36.78;;;7.18;;
33413;SDS011;60055;41.884;12.534;2022-08-18T01:35:23;35.63;;;7.00;;
33413;SDS011;60055;41.884;12.534;2022-08-18T01:37:54;28.73;;;6.63;;
33413;SDS011;60055;41.884;12.534;2022-08-18T01:40:20;34.63;;;7.30;;
33413;SDS011;60055;41.884;12.534;2022-08-18T01:42:48;29.90;;;6.70;;
33413;SDS011;60055;41.884;12.534;2022-08-18T01:45:14;33.75;;;7.38;;
33413;SDS011;60055;41.884;12.534;2022-08-18T01:47:42;43.05;;;7.70;;
33413;SDS011;60055;41.884;12.534;2022-08-18T01:50:08;36.55;;;7.35;;
33413;SDS011;60055;41.884;12.534;2022-08-18T01:52:37;33.08;;;7.25;;
33413;SDS011;60055;41.884;12.534;2022-08-18T01:55:04;30.27;;;6.47;;
33413;SDS011;60055;41.884;12.534;2022-08-18T01:57:32;33.70;;;7.07;;
33413;SDS011;60055;41.884;12.534;2022-08-18T02:00:05;35.55;;;7.28;;
33413;SDS011;60055;41.884;12.534;2022-08-18T02:02:32;34.70;;;7.72;;
33413;SDS011;60055;41.884;12.534;2022-08-18T02:04:59;37.28;;;6.95;;
33413;SDS011;60055;41.884;12.534;2022-08-18T02:07:29;30.48;;;7.35;;
33413;SDS011;60055;41.884;12.534;2022-08-18T02:09:55;34.05;;;6.90;;
33413;SDS011;60055;41.884;12.534;2022-08-18T02:12:20;39.80;;;7.63;;
33413;SDS011;60055;41.884;12.534;2022-08-18T02:14:46;30.20;;;6.53;;
33413;SDS011;60055;41.884;12.534;2022-08-18T02:17:12;43.72;;;7.65;;
33413;SDS011;60055;41.884;12.534;2022-08-18T02:19:42;33.50;;;7.38;;
33413;SDS011;60055;41.884;12.534;2022-08-18T02:22:10;34.42;;;7.70;;
33413;SDS011;60055;41.884;12.534;2022-08-18T02:24:38;35.65;;;7.13;;
33413;SDS011;60055;41.884;12.534;2022-08-18T02:27:05;36.15;;;7.60;;
33413;SDS011;60055;41.884;12.534;2022-08-18T02:29:31;42.70;;;8.27;;
33413;SDS011;60055;41.884;12.534;2022-08-18T02:31:57;43.50;;;7.45;;
33413;SDS011;60055;41.884;12.534;2022-08-18T02:34:23;37.88;;;7.55;;
33413;SDS011;60055;41.884;12.534;2022-08-18T02:36:49;37.47;;;11.25;;
33413;SDS011;60055;41.884;12.534;2022-08-18T02:39:15;35.63;;;7.53;;
33413;SDS011;60055;41.884;12.534;2022-08-18T02:41:41;29.27;;;6.93;;
33413;SDS011;60055;41.884;12.534;2022-08-18T02:44:08;38.47;;;7.50;;
33413;SDS011;60055;41.884;12.534;2022-08-18T02:46:34;33.78;;;6.72;;
33413;SDS011;60055;41.884;12.534;2022-08-18T02:49:00;30.10;;;6.72;;
33413;SDS011;60055;41.884;12.534;2022-08-18T02:51:25;30.60;;;7.35;;
33413;SDS011;60055;41.884;12.534;2022-08-18T02:53:52;29.27;;;6.95;;
33413;SDS011;60055;41.884;12.534;2022-08-18T02:56:19;32.85;;;7.13;;
33413;SDS011;60055;41.884;12.534;2022-08-18T02:58:55;36.88;;;7.60;;
33413;SDS011;60055;41.884;12.534;2022-08-18T03:01:26;33.38;;;7.13;;
33413;SDS011;60055;41.884;12.534;2022-08-18T03:03:55;37.03;;;7.30;;
33413;SDS011;60055;41.884;12.534;2022-08-18T03:06:21;30.52;;;6.85;;
33413;SDS011;60055;41.884;12.534;2022-08-18T03:08:48;29.02;;;6.53;;
33413;SDS011;60055;41.884;12.534;2022-08-18T03:11:18;27.95;;;6.82;;
33413;SDS011;60055;41.884;12.534;2022-08-18T03:13:53;35.00;;;7.00;;
33413;SDS011;60055;41.884;12.534;2022-08-18T03:16:20;36.35;;;7.10;;
33413;SDS011;60055;41.884;12.534;2022-08-18T03:18:48;31.10;;;6.47;;
33413;SDS011;60055;41.884;12.534;2022-08-18T03:21:20;33.72;;;6.97;;
33413;SDS011;60055;41.884;12.534;2022-08-18T03:23:48;36.50;;;7.13;;
33413;SDS011;60055;41.884;12.534;2022-08-18T03:26:15;34.17;;;6.75;;
33413;SDS011;60055;41.884;12.534;2022-08-18T03:28:43;36.80;;;7.03;;
33413;SDS011;60055;41.884;12.534;2022-08-18T03:31:12;35.17;;;7.38;;
33413;SDS011;60055;41.884;12.534;2022-08-18T03:33:40;26.75;;;6.60;;
33413;SDS011;60055;41.884;12.534;2022-08-18T03:36:17;34.13;;;6.60;;
33413;SDS011;60055;41.884;12.534;2022-08-18T03:38:45;27.02;;;6.30;;
33413;SDS011;60055;41.884;12.534;2022-08-18T03:41:13;28.50;;;6.78;;
33413;SDS011;60055;41.884;12.534;2022-08-18T03:43:41;28.85;;;6.38;;
33413;SDS011;60055;41.884;12.534;2022-08-18T03:46:08;28.15;;;6.47;;
33413;SDS011;60055;41.884;12.534;2022-08-18T03:48:36;25.88;;;6.15;;
33413;SDS011;60055;41.884;12.534;2022-08-18T03:51:09;30.83;;;6.68;;
33413;SDS011;60055;41.884;12.534;2022-08-18T03:53:38;28.42;;;6.50;;
33413;SDS011;60055;41.884;12.534;2022-08-18T03:56:08;27.10;;;6.18;;
33413;SDS011;60055;41.884;12.534;2022-08-18T03:58:40;30.70;;;6.20;;
33413;SDS011;60055;41.884;12.534;2022-08-18T04:01:09;28.42;;;6.07;;
33413;SDS011;60055;41.884;12.534;2022-08-18T04:03:37;36.47;;;7.10;;
33413;SDS011;60055;41.884;12.534;2022-08-18T04:06:03;26.10;;;6.35;;
33413;SDS011;60055;41.884;12.534;2022-08-18T04:08:29;26.80;;;6.45;;
33413;SDS011;60055;41.884;12.534;2022-08-18T04:10:54;30.05;;;6.13;;
33413;SDS011;60055;41.884;12.534;2022-08-18T04:13:20;26.55;;;5.60;;
33413;SDS011;60055;41.884;12.534;2022-08-18T04:15:46;29.08;;;5.40;;
33413;SDS011;60055;41.884;12.534;2022-08-18T04:18:11;25.35;;;5.90;;
33413;SDS011;60055;41.884;12.534;2022-08-18T04:20:37;29.30;;;6.30;;
33413;SDS011;60055;41.884;12.534;2022-08-18T04:23:04;28.23;;;6.22;;
33413;SDS011;60055;41.884;12.534;2022-08-18T04:25:30;33.47;;;6.05;;
33413;SDS011;60055;41.884;12.534;2022-08-18T04:27:56;25.17;;;5.88;;
33413;SDS011;60055;41.884;12.534;2022-08-18T04:30:25;24.85;;;5.72;;
33413;SDS011;60055;41.884;12.534;2022-08-18T04:32:53;29.55;;;5.70;;
33413;SDS011;60055;41.884;12.534;2022-08-18T04:35:18;30.13;;;5.93;;
33413;SDS011;60055;41.884;12.534;2022-08-18T04:37:46;28.85;;;6.00;;
33413;SDS011;60055;41.884;12.534;2022-08-18T04:40:12;28.25;;;6.32;;
33413;SDS011;60055;41.884;12.534;2022-08-18T04:42:38;33.38;;;6.03;;
33413;SDS011;60055;41.884;12.534;2022-08-18T04:45:04;27.42;;;5.88;;
33413;SDS011;60055;41.884;12.534;2022-08-18T04:47:31;25.90;;;6.35;;
33413;SDS011;60055;41.884;12.534;2022-08-18T04:49:56;27.40;;;6.00;;
33413;SDS011;60055;41.884;12.534;2022-08-18T04:52:22;29.45;;;5.72;;
33413;SDS011;60055;41.884;12.534;2022-08-18T04:55:06;28.85;;;6.03;;
33413;SDS011;60055;41.884;12.534;2022-08-18T04:57:33;21.63;;;5.20;;
33413;SDS011;60055;41.884;12.534;2022-08-18T04:59:58;23.98;;;6.00;;
33413;SDS011;60055;41.884;12.534;2022-08-18T05:02:24;30.00;;;6.15;;
33413;SDS011;60055;41.884;12.534;2022-08-18T05:04:50;32.40;;;6.07;;
33413;SDS011;60055;41.884;12.534;2022-08-18T05:07:17;29.85;;;6.38;;
33413;SDS011;60055;41.884;12.534;2022-08-18T05:09:45;35.22;;;6.43;;
33413;SDS011;60055;41.884;12.534;2022-08-18T05:12:11;25.95;;;5.95;;
33413;SDS011;60055;41.884;12.534;2022-08-18T05:14:39;31.98;;;6.53;;
33413;SDS011;60055;41.884;12.534;2022-08-18T05:17:06;30.95;;;6.18;;
33413;SDS011;60055;41.884;12.534;2022-08-18T05:19:32;30.33;;;5.68;;
33413;SDS011;60055;41.884;12.534;2022-08-18T05:21:59;36.25;;;8.20;;
33413;SDS011;60055;41.884;12.534;2022-08-18T05:24:26;39.45;;;8.45;;
33413;SDS011;60055;41.884;12.534;2022-08-18T05:26:54;33.35;;;6.47;;
33413;SDS011;60055;41.884;12.534;2022-08-18T05:29:19;30.02;;;5.60;;
33413;SDS011;60055;41.884;12.534;2022-08-18T05:31:54;37.67;;;5.90;;
33413;SDS011;60055;41.884;12.534;2022-08-18T05:34:21;31.63;;;5.60;;
33413;SDS011;60055;41.884;12.534;2022-08-18T05:42:18;39.40;;;5.88;;
33413;SDS011;60055;41.884;12.534;2022-08-18T05:44:46;33.13;;;5.47;;
33413;SDS011;60055;41.884;12.534;2022-08-18T05:47:16;33.67;;;5.78;;
33413;SDS011;60055;41.884;12.534;2022-08-18T05:49:49;28.35;;;5.20;;
33413;SDS011;60055;41.884;12.534;2022-08-18T05:55:09;33.05;;;5.78;;
33413;SDS011;60055;41.884;12.534;2022-08-18T05:57:59;33.17;;;5.97;;
33413;SDS011;60055;41.884;12.534;2022-08-18T06:00:29;36.67;;;6.05;;
33413;SDS011;60055;41.884;12.534;2022-08-18T06:02:57;40.17;;;7.72;;
33413;SDS011;60055;41.884;12.534;2022-08-18T06:05:35;35.95;;;6.07;;
33413;SDS011;60055;41.884;12.534;2022-08-18T06:08:09;28.33;;;5.47;;
33413;SDS011;60055;41.884;12.534;2022-08-18T06:10:38;33.55;;;5.75;;
33413;SDS011;60055;41.884;12.534;2022-08-18T06:13:08;35.08;;;5.75;;
33413;SDS011;60055;41.884;12.534;2022-08-18T06:24:01;31.38;;;5.90;;
33413;SDS011;60055;41.884;12.534;2022-08-18T06:29:23;36.90;;;5.22;;
33413;SDS011;60055;41.884;12.534;2022-08-18T06:37:50;29.15;;;5.30;;
33413;SDS011;60055;41.884;12.534;2022-08-18T06:40:37;42.38;;;6.00;;
33413;SDS011;60055;41.884;12.534;2022-08-18T06:43:03;35.13;;;4.53;;
33413;SDS011;60055;41.884;12.534;2022-08-18T06:45:34;40.03;;;5.30;;
33413;SDS011;60055;41.884;12.534;2022-08-18T06:48:13;35.30;;;5.60;;
33413;SDS011;60055;41.884;12.534;2022-08-18T06:51:05;30.50;;;4.78;;
33413;SDS011;60055;41.884;12.534;2022-08-18T06:56:46;36.78;;;4.95;;
33413;SDS011;60055;41.884;12.534;2022-08-18T07:01:44;33.70;;;5.05;;
33413;SDS011;60055;41.884;12.534;2022-08-18T07:09:53;32.90;;;4.93;;
33413;SDS011;60055;41.884;12.534;2022-08-18T07:12:23;33.67;;;5.20;;
33413;SDS011;60055;41.884;12.534;2022-08-18T07:14:52;40.40;;;5.13;;
33413;SDS011;60055;41.884;12.534;2022-08-18T07:17:24;32.35;;;5.47;;
33413;SDS011;60055;41.884;12.534;2022-08-18T07:19:56;35.72;;;5.53;;
33413;SDS011;60055;41.884;12.534;2022-08-18T07:22:24;34.13;;;5.22;;
33413;SDS011;60055;41.884;12.534;2022-08-18T07:24:50;38.40;;;5.75;;
33413;SDS011;60055;41.884;12.534;2022-08-18T07:27:20;41.88;;;5.88;;
33413;SDS011;60055;41.884;12.534;2022-08-18T07:32:57;49.53;;;6.25;;
33413;SDS011;60055;41.884;12.534;2022-08-18T07:35:27;33.33;;;5.22;;
33413;SDS011;60055;41.884;12.534;2022-08-18T07:38:22;33.38;;;5.30;;
33413;SDS011;60055;41.884;12.534;2022-08-18T07:41:05;32.78;;;5.70;;
33413;SDS011;60055;41.884;12.534;2022-08-18T07:43:40;36.00;;;5.20;;
33413;SDS011;60055;41.884;12.534;2022-08-18T07:49:00;34.90;;;5.00;;
33413;SDS011;60055;41.884;12.534;2022-08-18T07:59:49;37.35;;;5.53;;
33413;SDS011;60055;41.884;12.534;2022-08-18T08:08:01;40.80;;;5.70;;
33413;SDS011;60055;41.884;12.534;2022-08-18T08:10:41;33.80;;;5.70;;
33413;SDS011;60055;41.884;12.534;2022-08-18T08:13:18;39.17;;;5.70;;
33413;SDS011;60055;41.884;12.534;2022-08-18T08:24:40;44.05;;;5.68;;
33413;SDS011;60055;41.884;12.534;2022-08-18T08:27:43;36.70;;;5.30;;
33413;SDS011;60055;41.884;12.534;2022-08-18T08:30:13;31.42;;;5.03;;
33413;SDS011;60055;41.884;12.534;2022-08-18T08:35:17;33.90;;;5.53;;
33413;SDS011;60055;41.884;12.534;2022-08-18T08:37:55;29.10;;;4.80;;
33413;SDS011;60055;41.884;12.534;2022-08-18T08:40:29;36.40;;;5.60;;
33413;SDS011;60055;41.884;12.534;2022-08-18T08:46:05;41.95;;;5.57;;
33413;SDS011;60055;41.884;12.534;2022-08-18T08:51:40;39.45;;;5.40;;
33413;SDS011;60055;41.884;12.534;2022-08-18T08:54:21;45.60;;;5.43;;
33413;SDS011;60055;41.884;12.534;2022-08-18T08:56:51;36.00;;;4.97;;
33413;SDS011;60055;41.884;12.534;2022-08-18T08:59:21;31.67;;;5.22;;
33413;SDS011;60055;41.884;12.534;2022-08-18T09:01:55;35.67;;;5.78;;
33413;SDS011;60055;41.884;12.534;2022-08-18T09:12:56;40.75;;;5.75;;
33413;SDS011;60055;41.884;12.534;2022-08-18T09:26:45;36.85;;;5.53;;
33413;SDS011;60055;41.884;12.534;2022-08-18T09:32:36;34.88;;;5.55;;
33413;SDS011;60055;41.884;12.534;2022-08-18T09:37:46;43.97;;;5.78;;
33413;SDS011;60055;41.884;12.534;2022-08-18T09:40:46;43.78;;;6.00;;
33413;SDS011;60055;41.884;12.534;2022-08-18T09:43:58;38.70;;;5.20;;
33413;SDS011;60055;41.884;12.534;2022-08-18T09:51:50;30.88;;;5.47;;
33413;SDS011;60055;41.884;12.534;2022-08-18T09:54:23;44.90;;;5.80;;
33413;SDS011;60055;41.884;12.534;2022-08-18T09:56:56;40.42;;;5.90;;
33413;SDS011;60055;41.884;12.534;2022-08-18T10:01:56;41.35;;;5.50;;
33413;SDS011;60055;41.884;12.534;2022-08-18T10:04:26;32.80;;;5.43;;
33413;SDS011;60055;41.884;12.534;2022-08-18T10:10:03;39.45;;;5.47;;
33413;SDS011;60055;41.884;12.534;2022-08-18T10:15:38;39.58;;;5.30;;
33413;SDS011;60055;41.884;12.534;2022-08-18T10:18:19;37.85;;;5.75;;
33413;SDS011;60055;41.884;12.534;2022-08-18T10:29:02;31.90;;;4.80;;
33413;SDS011;60055;41.884;12.534;2022-08-18T10:31:28;35.92;;;5.30;;
33413;SDS011;60055;41.884;12.534;2022-08-18T10:39:11;35.17;;;5.65;;
33413;SDS011;60055;41.884;12.534;2022-08-18T10:42:03;43.80;;;5.80;;
33413;SDS011;60055;41.884;12.534;2022-08-18T10:44:31;31.45;;;5.20;;
33413;SDS011;60055;41.884;12.534;2022-08-18T10:47:01;33.70;;;5.60;;
33413;SDS011;60055;41.884;12.534;2022-08-18T10:49:29;28.52;;;5.00;;
33413;SDS011;60055;41.884;12.534;2022-08-18T11:00:03;27.73;;;5.13;;
33413;SDS011;60055;41.884;12.534;2022-08-18T11:02:45;34.10;;;5.50;;
33413;SDS011;60055;41.884;12.534;2022-08-18T11:05:22;35.28;;;5.32;;
33413;SDS011;60055;41.884;12.534;2022-08-18T11:07:53;39.72;;;5.82;;
33413;SDS011;60055;41.884;12.534;2022-08-18T11:10:33;37.90;;;6.00;;
33413;SDS011;60055;41.884;12.534;2022-08-18T11:24:01;35.58;;;5.90;;
33413;SDS011;60055;41.884;12.534;2022-08-18T11:26:35;35.58;;;5.72;;
33413;SDS011;60055;41.884;12.534;2022-08-18T11:29:17;36.95;;;5.93;;
33413;SDS011;60055;41.884;12.534;2022-08-18T11:31:52;33.83;;;4.95;;
33413;SDS011;60055;41.884;12.534;2022-08-18T11:37:06;35.60;;;5.57;;
33413;SDS011;60055;41.884;12.534;2022-08-18T11:39:53;27.90;;;5.70;;
33413;SDS011;60055;41.884;12.534;2022-08-18T11:42:41;34.13;;;5.95;;
33413;SDS011;60055;41.884;12.534;2022-08-18T11:45:21;31.05;;;5.68;;
33413;SDS011;60055;41.884;12.534;2022-08-18T11:50:46;40.83;;;5.80;;
33413;SDS011;60055;41.884;12.534;2022-08-18T11:58:47;33.72;;;6.25;;
33413;SDS011;60055;41.884;12.534;2022-08-18T12:03:59;39.65;;;5.85;;
33413;SDS011;60055;41.884;12.534;2022-08-18T12:06:32;35.58;;;5.97;;
33413;SDS011;60055;41.884;12.534;2022-08-18T12:11:30;32.67;;;6.05;;
33413;SDS011;60055;41.884;12.534;2022-08-18T12:14:01;36.13;;;6.00;;
33413;SDS011;60055;41.884;12.534;2022-08-18T12:16:31;32.75;;;6.15;;
33413;SDS011;60055;41.884;12.534;2022-08-18T12:19:02;40.90;;;6.53;;
33413;SDS011;60055;41.884;12.534;2022-08-18T12:21:29;38.92;;;5.72;;
33413;SDS011;60055;41.884;12.534;2022-08-18T12:23:56;35.88;;;6.03;;
33413;SDS011;60055;41.884;12.534;2022-08-18T12:26:21;37.15;;;6.25;;
33413;SDS011;60055;41.884;12.534;2022-08-18T12:28:47;34.63;;;6.75;;
33413;SDS011;60055;41.884;12.534;2022-08-18T12:31:13;30.45;;;6.25;;
33413;SDS011;60055;41.884;12.534;2022-08-18T12:33:38;42.05;;;7.57;;
33413;SDS011;60055;41.884;12.534;2022-08-18T12:36:04;34.80;;;6.13;;
33413;SDS011;60055;41.884;12.534;2022-08-18T12:38:30;34.53;;;6.00;;
33413;SDS011;60055;41.884;12.534;2022-08-18T12:40:57;39.42;;;6.50;;
33413;SDS011;60055;41.884;12.534;2022-08-18T12:43:23;36.95;;;6.90;;
33413;SDS011;60055;41.884;12.534;2022-08-18T12:45:49;32.50;;;6.50;;
33413;SDS011;60055;41.884;12.534;2022-08-18T12:48:16;35.42;;;7.15;;
33413;SDS011;60055;41.884;12.534;2022-08-18T12:50:41;40.45;;;6.38;;
33413;SDS011;60055;41.884;12.534;2022-08-18T12:53:08;40.78;;;6.53;;
33413;SDS011;60055;41.884;12.534;2022-08-18T12:55:35;35.45;;;6.60;;
33413;SDS011;60055;41.884;12.534;2022-08-18T12:58:05;32.22;;;6.40;;
33413;SDS011;60055;41.884;12.534;2022-08-18T13:00:32;40.60;;;6.40;;
33413;SDS011;60055;41.884;12.534;2022-08-18T13:02:58;34.10;;;6.68;;
33413;SDS011;60055;41.884;12.534;2022-08-18T13:05:25;39.33;;;6.57;;
33413;SDS011;60055;41.884;12.534;2022-08-18T13:07:52;43.80;;;6.95;;
33413;SDS011;60055;41.884;12.534;2022-08-18T13:10:21;30.52;;;6.13;;
33413;SDS011;60055;41.884;12.534;2022-08-18T13:12:47;32.75;;;5.78;;
33413;SDS011;60055;41.884;12.534;2022-08-18T13:15:12;46.03;;;6.68;;
33413;SDS011;60055;41.884;12.534;2022-08-18T13:17:38;43.22;;;6.15;;
33413;SDS011;60055;41.884;12.534;2022-08-18T13:20:05;38.17;;;6.35;;
33413;SDS011;60055;41.884;12.534;2022-08-18T13:22:33;30.20;;;6.07;;
33413;SDS011;60055;41.884;12.534;2022-08-18T13:25:01;38.13;;;6.30;;
33413;SDS011;60055;41.884;12.534;2022-08-18T13:27:28;41.63;;;6.50;;
33413;SDS011;60055;41.884;12.534;2022-08-18T13:29:53;43.42;;;6.22;;
33413;SDS011;60055;41.884;12.534;2022-08-18T13:32:20;30.80;;;5.55;;
33413;SDS011;60055;41.884;12.534;2022-08-18T13:34:45;38.28;;;6.50;;
33413;SDS011;60055;41.884;12.534;2022-08-18T13:37:11;34.92;;;6.43;;
33413;SDS011;60055;41.884;12.534;2022-08-18T13:39:38;35.15;;;6.40;;
33413;SDS011;60055;41.884;12.534;2022-08-18T13:42:03;38.38;;;6.20;;
33413;SDS011;60055;41.884;12.534;2022-08-18T13:44:30;34.88;;;6.32;;
33413;SDS011;60055;41.884;12.534;2022-08-18T13:46:56;34.47;;;5.72;;
33413;SDS011;60055;41.884;12.534;2022-08-18T13:49:22;34.80;;;5.90;;
33413;SDS011;60055;41.884;12.534;2022-08-18T13:51:49;41.03;;;5.95;;
33413;SDS011;60055;41.884;12.534;2022-08-18T13:54:19;32.92;;;6.22;;
33413;SDS011;60055;41.884;12.534;2022-08-18T13:56:47;39.95;;;5.75;;
33413;SDS011;60055;41.884;12.534;2022-08-18T13:59:14;34.00;;;5.97;;
33413;SDS011;60055;41.884;12.534;2022-08-18T14:01:40;34.22;;;5.70;;
33413;SDS011;60055;41.884;12.534;2022-08-18T14:04:07;31.02;;;5.07;;
33413;SDS011;60055;41.884;12.534;2022-08-18T14:06:33;36.72;;;6.53;;
33413;SDS011;60055;41.884;12.534;2022-08-18T14:08:58;35.55;;;6.43;;
33413;SDS011;60055;41.884;12.534;2022-08-18T14:11:26;34.42;;;5.75;;
33413;SDS011;60055;41.884;12.534;2022-08-18T14:13:54;39.60;;;5.97;;
33413;SDS011;60055;41.884;12.534;2022-08-18T14:16:20;31.00;;;5.55;;
33413;SDS011;60055;41.884;12.534;2022-08-18T14:18:47;32.35;;;5.93;;
33413;SDS011;60055;41.884;12.534;2022-08-18T14:21:34;37.28;;;6.05;;
33413;SDS011;60055;41.884;12.534;2022-08-18T14:24:22;37.63;;;5.63;;
33413;SDS011;60055;41.884;12.534;2022-08-18T14:27:06;35.58;;;5.65;;
33413;SDS011;60055;41.884;12.534;2022-08-18T14:29:32;44.72;;;6.20;;
33413;SDS011;60055;41.884;12.534;2022-08-18T14:31:58;41.03;;;6.30;;
33413;SDS011;60055;41.884;12.534;2022-08-18T14:34:24;41.13;;;6.43;;
33413;SDS011;60055;41.884;12.534;2022-08-18T14:36:49;41.92;;;6.00;;
33413;SDS011;60055;41.884;12.534;2022-08-18T14:39:15;34.58;;;5.93;;
33413;SDS011;60055;41.884;12.534;2022-08-18T14:41:41;35.75;;;6.13;;
33413;SDS011;60055;41.884;12.534;2022-08-18T14:44:06;35.80;;;6.07;;
33413;SDS011;60055;41.884;12.534;2022-08-18T14:46:33;33.92;;;5.97;;
33413;SDS011;60055;41.884;12.534;2022-08-18T14:48:59;40.20;;;7.07;;
33413;SDS011;60055;41.884;12.534;2022-08-18T14:51:25;33.45;;;6.15;;
33413;SDS011;60055;41.884;12.534;2022-08-18T14:53:51;35.75;;;6.13;;
33413;SDS011;60055;41.884;12.534;2022-08-18T14:56:16;37.17;;;6.38;;
33413;SDS011;60055;41.884;12.534;2022-08-18T14:58:42;40.70;;;6.55;;
33413;SDS011;60055;41.884;12.534;2022-08-18T15:01:09;36.92;;;5.50;;
33413;SDS011;60055;41.884;12.534;2022-08-18T15:03:37;34.60;;;6.00;;
33413;SDS011;60055;41.884;12.534;2022-08-18T15:06:04;32.95;;;5.82;;
33413;SDS011;60055;41.884;12.534;2022-08-18T15:08:32;39.17;;;6.60;;
33413;SDS011;60055;41.884;12.534;2022-08-18T15:10:59;28.98;;;5.75;;
33413;SDS011;60055;41.884;12.534;2022-08-18T15:13:25;35.33;;;5.88;;
33413;SDS011;60055;41.884;12.534;2022-08-18T15:15:51;35.75;;;6.35;;
33413;SDS011;60055;41.884;12.534;2022-08-18T15:18:17;35.47;;;6.35;;
33413;SDS011;60055;41.884;12.534;2022-08-18T15:20:43;29.25;;;5.82;;
33413;SDS011;60055;41.884;12.534;2022-08-18T15:23:27;39.92;;;6.40;;
33413;SDS011;60055;41.884;12.534;2022-08-18T15:26:12;34.85;;;5.70;;
33413;SDS011;60055;41.884;12.534;2022-08-18T15:28:41;34.08;;;5.97;;
33413;SDS011;60055;41.884;12.534;2022-08-18T15:31:07;33.80;;;5.90;;
33413;SDS011;60055;41.884;12.534;2022-08-18T15:33:33;34.97;;;6.15;;
33413;SDS011;60055;41.884;12.534;2022-08-18T15:35:59;35.17;;;6.18;;
33413;SDS011;60055;41.884;12.534;2022-08-18T15:38:28;40.85;;;6.10;;
33413;SDS011;60055;41.884;12.534;2022-08-18T15:40:55;36.97;;;6.82;;
33413;SDS011;60055;41.884;12.534;2022-08-18T15:43:24;32.42;;;6.05;;
33413;SDS011;60055;41.884;12.534;2022-08-18T15:45:55;36.67;;;7.45;;
33413;SDS011;60055;41.884;12.534;2022-08-18T15:48:22;34.42;;;8.88;;
33413;SDS011;60055;41.884;12.534;2022-08-18T15:50:49;32.10;;;6.20;;
33413;SDS011;60055;41.884;12.534;2022-08-18T15:53:15;34.60;;;5.43;;
33413;SDS011;60055;41.884;12.534;2022-08-18T15:55:44;29.00;;;5.78;;
33413;SDS011;60055;41.884;12.534;2022-08-18T15:58:10;38.50;;;6.10;;
33413;SDS011;60055;41.884;12.534;2022-08-18T16:00:37;40.38;;;5.88;;
33413;SDS011;60055;41.884;12.534;2022-08-18T16:03:09;28.23;;;5.57;;
33413;SDS011;60055;41.884;12.534;2022-08-18T16:05:39;40.90;;;6.18;;
33413;SDS011;60055;41.884;12.534;2022-08-18T16:08:10;32.67;;;5.68;;
33413;SDS011;60055;41.884;12.534;2022-08-18T16:10:37;37.67;;;6.18;;
33413;SDS011;60055;41.884;12.534;2022-08-18T16:13:04;36.95;;;5.88;;
33413;SDS011;60055;41.884;12.534;2022-08-18T16:15:34;37.88;;;5.45;;
33413;SDS011;60055;41.884;12.534;2022-08-18T16:18:05;33.00;;;5.28;;
33413;SDS011;60055;41.884;12.534;2022-08-18T16:20:32;39.88;;;6.20;;
33413;SDS011;60055;41.884;12.534;2022-08-18T16:22:59;45.00;;;6.10;;
33413;SDS011;60055;41.884;12.534;2022-08-18T16:25:26;38.35;;;5.70;;
33413;SDS011;60055;41.884;12.534;2022-08-18T16:27:52;39.30;;;5.50;;
33413;SDS011;60055;41.884;12.534;2022-08-18T16:30:22;31.35;;;5.93;;
33413;SDS011;60055;41.884;12.534;2022-08-18T16:32:50;31.77;;;6.22;;
33413;SDS011;60055;41.884;12.534;2022-08-18T16:35:16;35.05;;;5.78;;
33413;SDS011;60055;41.884;12.534;2022-08-18T16:37:43;30.83;;;6.00;;
33413;SDS011;60055;41.884;12.534;2022-08-18T16:40:10;35.08;;;5.55;;
33413;SDS011;60055;41.884;12.534;2022-08-18T16:42:37;29.77;;;5.10;;
33413;SDS011;60055;41.884;12.534;2022-08-18T16:45:03;40.05;;;5.82;;
33413;SDS011;60055;41.884;12.534;2022-08-18T16:47:30;26.75;;;5.18;;
33413;SDS011;60055;41.884;12.534;2022-08-18T16:50:01;33.70;;;5.80;;
33413;SDS011;60055;41.884;12.534;2022-08-18T16:52:29;31.02;;;5.43;;
33413;SDS011;60055;41.884;12.534;2022-08-18T16:54:56;27.75;;;5.28;;
33413;SDS011;60055;41.884;12.534;2022-08-18T16:57:22;36.05;;;5.88;;
33413;SDS011;60055;41.884;12.534;2022-08-18T17:00:07;29.52;;;5.45;;
33413;SDS011;60055;41.884;12.534;2022-08-18T17:02:52;39.15;;;5.65;;
33413;SDS011;60055;41.884;12.534;2022-08-18T17:05:37;35.90;;;5.78;;
33413;SDS011;60055;41.884;12.534;2022-08-18T17:08:02;37.65;;;5.57;;
33413;SDS011;60055;41.884;12.534;2022-08-18T17:10:29;39.58;;;6.18;;
33413;SDS011;60055;41.884;12.534;2022-08-18T17:13:01;37.13;;;6.20;;
33413;SDS011;60055;41.884;12.534;2022-08-18T17:15:29;35.47;;;6.22;;
33413;SDS011;60055;41.884;12.534;2022-08-18T17:17:55;40.83;;;6.20;;
33413;SDS011;60055;41.884;12.534;2022-08-18T17:20:21;40.70;;;6.88;;
33413;SDS011;60055;41.884;12.534;2022-08-18T17:22:47;32.45;;;5.65;;